Time;durP1;ratioP1;P1;durP2;ratioP2;P2;SDS_P1;SDS_P2;PMS_P1;PMS_P2;Temp;Humidity;BMP_temperature;BMP_pressure;BME280_temperature;BME280_humidity;BME280_pressure;Samples;Min_cycle;Max_cycle;Signal;HPM_P1;HPM_P2
2024/01/19 00:02:14;;;;;;;19.90;12.80;;;;;;;;;;5113799;28;20424;-61
2024/01/19 00:04:43;;;;;;;20.40;12.70;;;;;;;;;;5118385;27;20412;-60
2024/01/19 00:07:09;;;;;;;24.20;14.52;;;;;;;;;;5120518;27;20051;-61
2024/01/19 00:09:36;;;;;;;22.88;13.57;;;;;;;;;;5121026;27;20051;-60
2024/01/19 00:12:03;;;;;;;22.13;15.35;;;;;;;;;;5119805;27;20047;-61
2024/01/19 00:14:30;;;;;;;19.02;12.55;;;;;;;;;;5113768;27;20051;-61
2024/01/19 00:16:57;;;;;;;20.02;12.65;;;;;;;;;;5120765;27;20469;-60
2024/01/19 00:19:24;;;;;;;25.02;13.95;;;;;;;;;;5122828;27;20057;-60
2024/01/19 00:21:52;;;;;;;19.02;11.82;;;;;;;;;;5114627;28;20161;-60
2024/01/19 00:24:19;;;;;;;19.77;11.80;;;;;;;;;;5114509;28;20481;-60
2024/01/19 00:26:47;;;;;;;20.10;13.00;;;;;;;;;;5114269;28;20511;-61
2024/01/19 00:29:14;;;;;;;20.35;12.10;;;;;;;;;;5113845;28;20051;-60
2024/01/19 00:31:45;;;;;;;20.17;13.02;;;;;;;;;;5114246;28;20062;-60
2024/01/19 00:34:12;;;;;;;23.15;13.60;;;;;;;;;;5114280;28;20488;-61
2024/01/19 00:36:39;;;;;;;19.38;12.10;;;;;;;;;;5114214;28;20055;-61
2024/01/19 00:39:07;;;;;;;19.50;12.55;;;;;;;;;;5122490;27;20422;-60
2024/01/19 00:41:34;;;;;;;20.75;12.70;;;;;;;;;;5117974;27;20051;-60
2024/01/19 00:44:01;;;;;;;24.80;13.30;;;;;;;;;;5114120;28;20097;-61
2024/01/19 00:46:28;;;;;;;21.13;13.25;;;;;;;;;;5114256;28;20051;-60
2024/01/19 00:48:55;;;;;;;23.05;13.35;;;;;;;;;;5118323;27;20404;-61
2024/01/19 00:51:22;;;;;;;24.48;15.45;;;;;;;;;;5118780;27;20059;-61
2024/01/19 00:53:48;;;;;;;23.25;13.35;;;;;;;;;;5123223;27;20405;-60
2024/01/19 00:56:17;;;;;;;29.40;15.57;;;;;;;;;;5112742;28;20059;-61
2024/01/19 00:58:45;;;;;;;29.30;16.27;;;;;;;;;;5113749;28;20055;-62
2024/01/19 01:01:12;;;;;;;26.10;15.05;;;;;;;;;;5113739;28;20051;-62
2024/01/19 01:03:39;;;;;;;25.40;13.90;;;;;;;;;;5113543;28;20146;-61
2024/01/19 01:06:05;;;;;;;24.92;14.60;;;;;;;;;;5119472;27;20054;-61
2024/01/19 01:08:34;;;;;;;23.48;13.68;;;;;;;;;;5117151;27;20055;-62
2024/01/19 01:11:01;;;;;;;25.48;13.45;;;;;;;;;;5119187;27;20050;-62
2024/01/19 01:13:29;;;;;;;26.83;15.38;;;;;;;;;;5119909;27;20407;-61
2024/01/19 01:15:56;;;;;;;26.35;14.13;;;;;;;;;;5119387;27;20054;-62
2024/01/19 01:18:23;;;;;;;25.77;14.70;;;;;;;;;;5121717;27;20048;-60
2024/01/19 01:20:49;;;;;;;29.05;15.25;;;;;;;;;;5117470;27;20043;-58
2024/01/19 01:23:16;;;;;;;28.83;16.00;;;;;;;;;;5118352;27;20055;-59
2024/01/19 01:25:44;;;;;;;25.88;14.77;;;;;;;;;;5123247;27;20047;-60
2024/01/19 01:28:10;;;;;;;24.30;13.35;;;;;;;;;;5123317;27;20055;-60
2024/01/19 01:30:40;;;;;;;27.73;14.27;;;;;;;;;;5116682;27;20054;-60
2024/01/19 01:33:07;;;;;;;26.30;15.35;;;;;;;;;;5120516;27;20048;-60
2024/01/19 01:35:35;;;;;;;31.75;15.50;;;;;;;;;;5113672;28;20051;-60
2024/01/19 01:38:02;;;;;;;30.38;15.63;;;;;;;;;;5113296;28;20062;-60
2024/01/19 01:40:29;;;;;;;28.88;14.95;;;;;;;;;;5112922;28;20059;-60
2024/01/19 01:42:57;;;;;;;26.15;13.95;;;;;;;;;;5113011;28;20076;-60
2024/01/19 01:45:23;;;;;;;24.55;14.38;;;;;;;;;;5113278;28;20078;-60
2024/01/19 01:47:52;;;;;;;26.75;14.43;;;;;;;;;;5112779;28;20047;-61
2024/01/19 01:50:18;;;;;;;35.97;16.90;;;;;;;;;;5120827;27;20046;-60
2024/01/19 01:52:46;;;;;;;31.00;15.50;;;;;;;;;;5115913;27;20051;-60
2024/01/19 01:55:13;;;;;;;30.23;15.55;;;;;;;;;;5112950;28;20453;-60
2024/01/19 01:57:41;;;;;;;32.10;14.82;;;;;;;;;;5113042;28;20051;-60
2024/01/19 02:00:08;;;;;;;31.23;15.27;;;;;;;;;;5118572;28;20047;-60
2024/01/19 02:02:35;;;;;;;30.02;15.63;;;;;;;;;;5112405;28;20058;-61
2024/01/19 02:05:05;;;;;;;27.90;15.18;;;;;;;;;;5112640;28;20051;-60
2024/01/19 02:07:31;;;;;;;31.83;16.05;;;;;;;;;;5108861;28;20059;-61
2024/01/19 02:09:58;;;;;;;33.38;15.70;;;;;;;;;;5092280;28;20413;-61
2024/01/19 02:12:26;;;;;;;27.65;14.73;;;;;;;;;;5092635;28;20052;-60
2024/01/19 02:14:52;;;;;;;28.42;14.75;;;;;;;;;;5092474;28;20055;-61
2024/01/19 02:17:19;;;;;;;30.00;14.77;;;;;;;;;;5096807;28;20043;-60
2024/01/19 02:19:46;;;;;;;30.88;14.10;;;;;;;;;;5123845;28;20051;-60
2024/01/19 02:22:14;;;;;;;34.78;16.08;;;;;;;;;;5116875;28;20512;-61
2024/01/19 02:24:42;;;;;;;31.65;15.15;;;;;;;;;;5113161;28;20481;-61
2024/01/19 02:27:09;;;;;;;34.80;17.48;;;;;;;;;;5116468;28;20048;-60
2024/01/19 02:29:36;;;;;;;30.23;15.93;;;;;;;;;;5124898;27;20051;-59
2024/01/19 02:32:03;;;;;;;30.30;15.45;;;;;;;;;;5126218;27;20047;-62
2024/01/19 02:34:30;;;;;;;29.13;14.65;;;;;;;;;;5137640;27;20039;-61
2024/01/19 02:36:56;;;;;;;31.05;15.50;;;;;;;;;;5116457;27;20058;-61
2024/01/19 02:39:23;;;;;;;28.20;14.63;;;;;;;;;;5116568;28;20055;-61
2024/01/19 02:41:51;;;;;;;29.67;15.13;;;;;;;;;;5116649;28;20059;-61
2024/01/19 02:44:18;;;;;;;29.73;15.50;;;;;;;;;;5116552;28;20507;-61
2024/01/19 02:46:45;;;;;;;28.17;14.60;;;;;;;;;;5116376;28;20408;-60
2024/01/19 02:49:12;;;;;;;26.23;13.95;;;;;;;;;;5127237;27;20077;-61
2024/01/19 02:51:38;;;;;;;26.88;13.18;;;;;;;;;;5119873;27;20059;-60
2024/01/19 02:54:05;;;;;;;28.83;13.68;;;;;;;;;;5115981;28;20066;-61
2024/01/19 02:56:32;;;;;;;30.63;14.45;;;;;;;;;;5116435;28;20388;-60
2024/01/19 02:59:00;;;;;;;24.33;12.98;;;;;;;;;;5118111;27;20047;-61
2024/01/19 03:01:27;;;;;;;21.85;13.18;;;;;;;;;;5122881;27;20050;-61
2024/01/19 03:03:54;;;;;;;26.23;13.80;;;;;;;;;;5120712;27;20069;-61
2024/01/19 03:06:21;;;;;;;24.88;12.32;;;;;;;;;;5114976;28;20125;-59
2024/01/19 03:08:47;;;;;;;23.67;13.15;;;;;;;;;;5101740;28;20059;-61
2024/01/19 03:11:14;;;;;;;22.83;12.25;;;;;;;;;;5095867;28;20056;-62
2024/01/19 03:13:41;;;;;;;22.75;12.80;;;;;;;;;;5095634;28;20059;-61
2024/01/19 03:16:09;;;;;;;21.17;12.35;;;;;;;;;;5118635;27;20050;-62
2024/01/19 03:18:36;;;;;;;22.30;12.18;;;;;;;;;;5119661;27;20066;-61
2024/01/19 03:21:03;;;;;;;21.63;12.32;;;;;;;;;;5116898;27;20047;-61
2024/01/19 03:23:29;;;;;;;22.98;13.15;;;;;;;;;;5117468;27;20055;-61
2024/01/19 03:25:56;;;;;;;23.40;13.38;;;;;;;;;;5115853;27;20039;-61
2024/01/19 03:28:23;;;;;;;23.05;12.60;;;;;;;;;;5115985;28;20056;-61
2024/01/19 03:30:50;;;;;;;27.90;14.25;;;;;;;;;;5115600;27;20047;-61
2024/01/19 03:33:18;;;;;;;21.02;12.07;;;;;;;;;;5120766;27;20055;-61
2024/01/19 03:35:45;;;;;;;25.52;13.80;;;;;;;;;;5118799;27;20054;-60
2024/01/19 03:38:12;;;;;;;21.67;13.32;;;;;;;;;;5121032;27;20047;-61
2024/01/19 03:40:39;;;;;;;26.15;15.15;;;;;;;;;;5116034;28;20048;-60
2024/01/19 03:43:06;;;;;;;23.48;13.85;;;;;;;;;;5115387;28;20090;-60
2024/01/19 03:45:32;;;;;;;24.90;14.45;;;;;;;;;;5115161;28;20143;-60
2024/01/19 03:47:59;;;;;;;23.77;14.27;;;;;;;;;;5114591;28;20420;-61
2024/01/19 03:50:27;;;;;;;24.55;15.48;;;;;;;;;;5117410;27;20044;-60
2024/01/19 03:52:54;;;;;;;24.17;14.68;;;;;;;;;;5124251;27;20043;-60
2024/01/19 03:55:21;;;;;;;26.27;15.18;;;;;;;;;;5120379;27;20050;-61
2024/01/19 03:57:47;;;;;;;23.80;14.52;;;;;;;;;;5123634;27;20048;-61
2024/01/19 04:00:14;;;;;;;23.80;14.68;;;;;;;;;;5128234;27;20051;-60
2024/01/19 04:02:41;;;;;;;26.02;15.27;;;;;;;;;;5135632;27;20051;-60
2024/01/19 04:05:09;;;;;;;24.10;16.00;;;;;;;;;;5115677;27;20048;-60
2024/01/19 04:07:37;;;;;;;29.33;17.25;;;;;;;;;;5114937;28;20404;-60
2024/01/19 04:10:04;;;;;;;27.92;16.50;;;;;;;;;;5114609;28;20058;-60
2024/01/19 04:12:30;;;;;;;27.75;16.52;;;;;;;;;;5114694;28;20052;-61
2024/01/19 04:14:57;;;;;;;27.25;17.25;;;;;;;;;;5116694;27;20043;-60
2024/01/19 04:17:24;;;;;;;28.13;17.17;;;;;;;;;;5121669;27;20052;-60
2024/01/19 04:19:50;;;;;;;27.95;16.30;;;;;;;;;;5114885;28;20131;-60
2024/01/19 04:22:17;;;;;;;28.48;17.15;;;;;;;;;;5114806;28;20056;-61
2024/01/19 04:24:45;;;;;;;28.35;16.55;;;;;;;;;;5118253;27;20519;-60
2024/01/19 04:27:12;;;;;;;29.92;17.98;;;;;;;;;;5121583;27;20051;-60
2024/01/19 04:29:39;;;;;;;29.63;18.00;;;;;;;;;;5123072;27;20412;-60
2024/01/19 04:32:06;;;;;;;31.00;17.23;;;;;;;;;;5114013;28;20473;-61
2024/01/19 04:34:33;;;;;;;31.42;18.88;;;;;;;;;;5114447;28;20049;-60
2024/01/19 04:37:00;;;;;;;34.33;18.63;;;;;;;;;;5114328;28;20074;-60
2024/01/19 04:39:26;;;;;;;31.13;17.83;;;;;;;;;;5113969;28;20051;-60
2024/01/19 04:41:54;;;;;;;32.53;20.33;;;;;;;;;;5113106;27;20043;-60
2024/01/19 04:44:21;;;;;;;32.35;18.45;;;;;;;;;;5120915;27;20051;-60
2024/01/19 04:46:48;;;;;;;30.85;18.63;;;;;;;;;;5128164;27;20044;-60
2024/01/19 04:49:15;;;;;;;34.17;18.23;;;;;;;;;;5114163;28;20062;-60
2024/01/19 04:51:42;;;;;;;30.63;18.45;;;;;;;;;;5115748;27;20412;-60
2024/01/19 04:54:09;;;;;;;30.90;18.42;;;;;;;;;;5119836;27;20051;-60
2024/01/19 04:56:35;;;;;;;30.35;19.20;;;;;;;;;;5124671;27;20059;-62
2024/01/19 04:59:04;;;;;;;39.15;19.90;;;;;;;;;;5120822;27;20062;-61
2024/01/19 05:01:30;;;;;;;35.20;18.45;;;;;;;;;;5116897;27;20397;-59
2024/01/19 05:03:57;;;;;;;34.13;19.13;;;;;;;;;;5113152;28;20078;-60
2024/01/19 05:06:24;;;;;;;33.97;19.92;;;;;;;;;;5113674;28;20069;-59
2024/01/19 05:08:51;;;;;;;33.88;18.50;;;;;;;;;;5117671;27;20058;-60
2024/01/19 05:11:18;;;;;;;32.35;18.15;;;;;;;;;;5121765;27;20400;-59
2024/01/19 05:13:45;;;;;;;33.10;18.02;;;;;;;;;;5121779;27;20113;-60
2024/01/19 05:16:13;;;;;;;30.85;18.05;;;;;;;;;;5113304;28;20059;-61
2024/01/19 05:18:40;;;;;;;35.53;19.58;;;;;;;;;;5113268;28;20504;-60
2024/01/19 05:21:07;;;;;;;29.77;17.65;;;;;;;;;;5113265;28;20051;-60
2024/01/19 05:23:34;;;;;;;31.00;18.95;;;;;;;;;;5113345;28;20512;-60
2024/01/19 05:26:03;;;;;;;32.38;18.20;;;;;;;;;;5112776;28;20396;-61
2024/01/19 05:28:31;;;;;;;35.88;20.48;;;;;;;;;;5108157;27;20055;-61
2024/01/19 05:30:58;;;;;;;34.00;18.77;;;;;;;;;;5111433;28;20051;-61
2024/01/19 05:33:26;;;;;;;33.40;17.15;;;;;;;;;;5110829;28;20374;-61
2024/01/19 05:35:53;;;;;;;30.00;17.38;;;;;;;;;;5111347;28;20484;-61
2024/01/19 05:38:20;;;;;;;30.67;16.83;;;;;;;;;;5112667;28;20416;-59
2024/01/19 05:40:47;;;;;;;33.30;17.55;;;;;;;;;;5111179;28;20066;-59
2024/01/19 05:43:13;;;;;;;35.17;19.13;;;;;;;;;;5107787;28;20052;-62
2024/01/19 05:45:40;;;;;;;31.67;17.80;;;;;;;;;;5113028;28;20477;-62
2024/01/19 05:48:07;;;;;;;36.00;18.27;;;;;;;;;;5112968;28;20055;-62
2024/01/19 05:50:35;;;;;;;33.83;18.42;;;;;;;;;;5111076;28;20055;-61
2024/01/19 05:53:02;;;;;;;33.13;18.20;;;;;;;;;;5109454;28;20052;-60
2024/01/19 05:55:29;;;;;;;30.88;17.27;;;;;;;;;;5112165;28;20075;-60
2024/01/19 05:57:55;;;;;;;38.53;19.35;;;;;;;;;;5112668;28;20044;-60
2024/01/19 06:00:22;;;;;;;30.27;16.15;;;;;;;;;;5114877;28;20055;-60
2024/01/19 06:02:49;;;;;;;30.35;16.83;;;;;;;;;;5119387;28;20055;-61
2024/01/19 06:05:16;;;;;;;29.80;15.60;;;;;;;;;;5118890;28;20058;-61
2024/01/19 06:07:44;;;;;;;31.17;16.67;;;;;;;;;;5119704;28;20048;-61
2024/01/19 06:10:11;;;;;;;30.92;15.65;;;;;;;;;;5118165;28;20051;-61
2024/01/19 06:12:38;;;;;;;30.88;17.02;;;;;;;;;;5117676;27;20055;-61
2024/01/19 06:15:05;;;;;;;28.77;15.85;;;;;;;;;;5119580;28;20386;-61
2024/01/19 06:17:32;;;;;;;32.97;15.38;;;;;;;;;;5119157;28;20062;-61
2024/01/19 06:19:59;;;;;;;40.75;18.10;;;;;;;;;;5118070;28;20062;-61
2024/01/19 06:22:26;;;;;;;31.95;17.42;;;;;;;;;;5117611;27;20048;-60
2024/01/19 06:24:54;;;;;;;32.55;17.98;;;;;;;;;;5117412;27;20409;-61
2024/01/19 06:27:21;;;;;;;29.08;15.18;;;;;;;;;;5116990;27;20051;-61
2024/01/19 06:29:48;;;;;;;31.75;16.63;;;;;;;;;;5116505;27;20055;-61
2024/01/19 06:32:14;;;;;;;27.38;14.70;;;;;;;;;;5116791;27;20405;-59
2024/01/19 06:34:42;;;;;;;29.10;15.45;;;;;;;;;;5119056;27;20051;-60
2024/01/19 06:37:09;;;;;;;31.35;17.33;;;;;;;;;;5115398;27;20070;-60
2024/01/19 06:39:38;;;;;;;31.33;18.23;;;;;;;;;;5117566;27;20059;-60
2024/01/19 06:42:07;;;;;;;32.50;16.85;;;;;;;;;;5118429;27;20043;-64
2024/01/19 06:44:33;;;;;;;31.10;16.92;;;;;;;;;;5117040;27;20047;-62
2024/01/19 06:47:00;;;;;;;30.83;15.82;;;;;;;;;;5115194;27;20055;-63
2024/01/19 06:49:27;;;;;;;36.67;18.00;;;;;;;;;;5118006;27;20377;-63
2024/01/19 06:51:54;;;;;;;32.20;17.52;;;;;;;;;;5117267;27;20070;-63
2024/01/19 06:54:20;;;;;;;35.55;17.52;;;;;;;;;;5116444;28;20504;-62
2024/01/19 06:56:47;;;;;;;34.47;18.52;;;;;;;;;;5116798;27;20484;-62
2024/01/19 06:59:15;;;;;;;33.92;17.65;;;;;;;;;;5118796;27;20051;-64
2024/01/19 07:01:42;;;;;;;40.10;20.35;;;;;;;;;;5118411;27;20468;-63
2024/01/19 07:04:10;;;;;;;30.45;17.40;;;;;;;;;;5113262;27;20424;-64
2024/01/19 07:06:37;;;;;;;33.25;17.63;;;;;;;;;;5117119;27;20047;-64
2024/01/19 07:09:04;;;;;;;34.08;18.17;;;;;;;;;;5117240;27;20051;-63
2024/01/19 07:11:31;;;;;;;36.25;18.45;;;;;;;;;;5107674;28;20063;-64
2024/01/19 07:13:58;;;;;;;33.60;17.10;;;;;;;;;;5098388;28;20052;-63
2024/01/19 07:16:26;;;;;;;32.90;18.58;;;;;;;;;;5104240;28;20054;-63
2024/01/19 07:18:53;;;;;;;34.47;18.67;;;;;;;;;;5113099;27;20052;-63
2024/01/19 07:21:20;;;;;;;34.20;18.15;;;;;;;;;;5112903;27;20063;-63
2024/01/19 07:23:47;;;;;;;30.85;16.98;;;;;;;;;;5114684;28;20055;-64
2024/01/19 07:26:18;;;;;;;34.40;18.83;;;;;;;;;;5130361;27;20392;-64
2024/01/19 07:28:45;;;;;;;36.50;19.73;;;;;;;;;;5135456;27;20055;-64
2024/01/19 07:31:11;;;;;;;36.35;18.50;;;;;;;;;;5114911;27;20412;-63
2024/01/19 07:33:40;;;;;;;32.45;16.83;;;;;;;;;;5115684;28;20055;-65
2024/01/19 07:36:07;;;;;;;35.53;18.77;;;;;;;;;;5132018;27;20070;-63
2024/01/19 07:38:34;;;;;;;35.95;20.23;;;;;;;;;;5123415;27;20499;-65
2024/01/19 07:41:01;;;;;;;34.75;19.33;;;;;;;;;;5115389;27;20058;-62
2024/01/19 07:43:28;;;;;;;38.03;20.38;;;;;;;;;;5117354;27;20056;-65
2024/01/19 07:45:55;;;;;;;36.97;20.02;;;;;;;;;;5115715;27;20062;-63
2024/01/19 07:48:21;;;;;;;38.78;19.83;;;;;;;;;;5122724;27;20039;-65
2024/01/19 07:50:50;;;;;;;36.63;19.17;;;;;;;;;;5123948;27;20047;-65
2024/01/19 07:53:16;;;;;;;37.13;18.70;;;;;;;;;;5124631;27;20062;-64
2024/01/19 07:55:43;;;;;;;34.42;18.85;;;;;;;;;;5123470;27;20492;-65
2024/01/19 07:58:10;;;;;;;36.22;19.75;;;;;;;;;;5110795;27;20055;-64
2024/01/19 08:00:37;;;;;;;35.40;19.73;;;;;;;;;;5106042;27;20047;-65
2024/01/19 08:03:05;;;;;;;40.42;21.45;;;;;;;;;;5128407;27;20061;-63
2024/01/19 08:05:32;;;;;;;39.13;20.27;;;;;;;;;;5133237;27;20485;-64
2024/01/19 08:08:00;;;;;;;39.30;22.02;;;;;;;;;;5123544;27;20047;-64
2024/01/19 08:10:28;;;;;;;38.47;21.15;;;;;;;;;;5117362;27;20503;-64
2024/01/19 08:12:55;;;;;;;36.25;19.20;;;;;;;;;;5116207;27;20401;-64
2024/01/19 08:15:22;;;;;;;35.92;19.88;;;;;;;;;;5117855;27;20062;-64
2024/01/19 08:17:48;;;;;;;34.88;19.42;;;;;;;;;;5135213;27;20051;-65
2024/01/19 08:20:15;;;;;;;38.53;21.13;;;;;;;;;;5116756;27;20392;-64
2024/01/19 08:22:42;;;;;;;37.08;21.05;;;;;;;;;;5123662;27;20043;-65
2024/01/19 08:25:10;;;;;;;43.13;22.17;;;;;;;;;;5122068;27;20047;-65
2024/01/19 08:27:40;;;;;;;40.75;21.92;;;;;;;;;;5134490;27;20043;-65
2024/01/19 08:30:07;;;;;;;35.63;20.80;;;;;;;;;;5123701;27;20055;-64
2024/01/19 08:32:35;;;;;;;33.83;19.80;;;;;;;;;;5121700;27;20055;-65
2024/01/19 08:35:08;;;;;;;38.40;21.38;;;;;;;;;;5120875;27;20054;-64
2024/01/19 08:37:36;;;;;;;35.45;20.90;;;;;;;;;;5114513;27;20044;-65
2024/01/19 08:40:02;;;;;;;42.03;22.85;;;;;;;;;;5118589;27;20488;-65
2024/01/19 08:42:31;;;;;;;37.30;20.20;;;;;;;;;;5121515;27;20062;-65
2024/01/19 08:44:58;;;;;;;36.17;20.83;;;;;;;;;;5123372;27;20092;-64
2024/01/19 08:47:24;;;;;;;32.63;19.77;;;;;;;;;;5120886;27;20485;-65
2024/01/19 08:49:51;;;;;;;37.55;21.13;;;;;;;;;;5118283;27;20055;-65
2024/01/19 08:52:18;;;;;;;37.38;24.13;;;;;;;;;;5119600;27;20047;-65
2024/01/19 08:54:45;;;;;;;36.75;21.58;;;;;;;;;;5122240;27;20051;-65
2024/01/19 08:57:32;;;;;;;38.65;21.27;;;;;;;;;;5121272;27;20047;-65
2024/01/19 08:59:59;;;;;;;31.25;19.63;;;;;;;;;;5113809;27;20427;-65
2024/01/19 09:02:26;;;;;;;34.15;20.60;;;;;;;;;;5119931;27;20055;-66
2024/01/19 09:04:53;;;;;;;34.17;20.73;;;;;;;;;;5115050;27;20047;-63
2024/01/19 09:07:19;;;;;;;30.77;19.30;;;;;;;;;;5120312;27;20070;-65
2024/01/19 09:09:46;;;;;;;35.63;20.38;;;;;;;;;;5133066;27;20054;-65
2024/01/19 09:12:13;;;;;;;31.40;19.40;;;;;;;;;;5126046;27;20484;-65
2024/01/19 09:14:42;;;;;;;30.38;18.98;;;;;;;;;;5114568;27;20055;-64
2024/01/19 09:17:09;;;;;;;34.28;20.05;;;;;;;;;;5101856;27;20078;-65
2024/01/19 09:19:35;;;;;;;29.33;19.45;;;;;;;;;;5109132;28;20406;-64
2024/01/19 09:22:02;;;;;;;29.77;19.17;;;;;;;;;;5115934;27;20052;-65
2024/01/19 09:24:29;;;;;;;30.38;20.52;;;;;;;;;;5129529;27;20492;-64
2024/01/19 09:26:56;;;;;;;29.98;20.42;;;;;;;;;;5128846;27;20047;-65
2024/01/19 09:29:23;;;;;;;32.00;20.92;;;;;;;;;;5117766;27;20043;-64
2024/01/19 09:31:51;;;;;;;30.08;19.55;;;;;;;;;;5117440;27;20048;-65
2024/01/19 09:34:18;;;;;;;34.63;22.10;;;;;;;;;;5113128;27;20047;-64
2024/01/19 09:36:45;;;;;;;33.72;21.73;;;;;;;;;;5113191;27;20051;-65
2024/01/19 09:39:12;;;;;;;34.47;21.50;;;;;;;;;;5112920;28;20048;-63
2024/01/19 09:41:39;;;;;;;35.55;21.80;;;;;;;;;;5112953;28;20058;-65
2024/01/19 09:44:10;;;;;;;32.75;20.20;;;;;;;;;;5112899;28;20378;-63
2024/01/19 09:46:42;;;;;;;29.73;19.55;;;;;;;;;;5116345;27;20477;-63
2024/01/19 09:49:11;;;;;;;26.50;18.58;;;;;;;;;;5113905;27;20048;-62
2024/01/19 09:51:44;;;;;;;28.67;18.33;;;;;;;;;;5116599;27;20063;-64
2024/01/19 09:54:14;;;;;;;29.95;19.42;;;;;;;;;;5129330;27;20524;-65
2024/01/19 09:56:41;;;;;;;24.80;17.35;;;;;;;;;;5124019;27;20481;-64
2024/01/19 09:59:08;;;;;;;24.83;17.50;;;;;;;;;;5126735;28;20046;-64
2024/01/19 10:01:36;;;;;;;28.65;20.15;;;;;;;;;;5121062;28;20055;-64
2024/01/19 10:04:05;;;;;;;28.10;18.23;;;;;;;;;;5116286;28;20122;-64
2024/01/19 10:06:33;;;;;;;26.58;17.23;;;;;;;;;;5125869;28;20050;-64
2024/01/19 10:09:01;;;;;;;23.98;15.93;;;;;;;;;;5114713;28;20059;-64
2024/01/19 10:11:30;;;;;;;25.27;16.63;;;;;;;;;;5120449;28;20044;-63
2024/01/19 10:13:57;;;;;;;22.05;16.55;;;;;;;;;;5109040;28;20067;-65
2024/01/19 10:16:23;;;;;;;22.90;15.20;;;;;;;;;;5119484;28;20047;-64
2024/01/19 10:18:50;;;;;;;24.95;17.30;;;;;;;;;;5123412;28;20048;-64
2024/01/19 10:21:26;;;;;;;26.13;15.80;;;;;;;;;;5126676;28;20062;-64
2024/01/19 10:24:07;;;;;;;22.08;16.55;;;;;;;;;;5116849;28;20051;-64
2024/01/19 10:26:35;;;;;;;24.20;14.75;;;;;;;;;;5112472;28;20405;-65
2024/01/19 10:29:08;;;;;;;22.00;15.20;;;;;;;;;;5113532;28;20047;-65
2024/01/19 10:31:35;;;;;;;22.77;16.13;;;;;;;;;;5119584;28;20047;-65
2024/01/19 10:34:02;;;;;;;23.10;15.88;;;;;;;;;;5129521;28;20051;-65
2024/01/19 10:36:37;;;;;;;24.77;17.48;;;;;;;;;;5117687;28;20497;-64
2024/01/19 10:39:16;;;;;;;20.90;14.50;;;;;;;;;;5114576;28;20043;-65
2024/01/19 10:41:43;;;;;;;24.95;16.38;;;;;;;;;;5115036;28;20055;-65
2024/01/19 10:44:10;;;;;;;24.02;16.00;;;;;;;;;;5116663;28;20416;-65
2024/01/19 10:46:37;;;;;;;22.23;14.63;;;;;;;;;;5126752;27;20057;-65
2024/01/19 10:49:04;;;;;;;21.98;14.75;;;;;;;;;;5123848;27;20051;-63
2024/01/19 10:51:33;;;;;;;25.05;16.17;;;;;;;;;;5118430;27;20054;-65
2024/01/19 10:54:01;;;;;;;22.63;14.27;;;;;;;;;;5118354;27;20555;-65
2024/01/19 10:56:29;;;;;;;23.10;14.70;;;;;;;;;;5113844;27;20047;-65
2024/01/19 10:58:56;;;;;;;21.13;14.20;;;;;;;;;;5136399;27;20048;-65
2024/01/19 11:01:23;;;;;;;22.15;14.27;;;;;;;;;;5133239;27;20415;-65
2024/01/19 11:03:50;;;;;;;23.75;15.77;;;;;;;;;;5113748;28;20044;-65
2024/01/19 11:06:19;;;;;;;23.20;15.20;;;;;;;;;;5114757;28;20050;-67
2024/01/19 11:08:46;;;;;;;22.70;15.83;;;;;;;;;;5121391;27;20396;-67
2024/01/19 11:11:13;;;;;;;20.40;14.88;;;;;;;;;;5136247;27;20046;-66
2024/01/19 11:13:44;;;;;;;22.67;15.00;;;;;;;;;;5132600;27;20054;-69
2024/01/19 11:16:12;;;;;;;21.02;13.63;;;;;;;;;;5136567;27;20055;-65
2024/01/19 11:18:39;;;;;;;19.08;12.93;;;;;;;;;;5129335;27;20052;-65
2024/01/19 11:21:06;;;;;;;21.50;13.68;;;;;;;;;;5115250;28;20056;-65
2024/01/19 11:23:34;;;;;;;21.67;15.25;;;;;;;;;;5115169;27;20113;-65
2024/01/19 11:26:07;;;;;;;23.58;14.90;;;;;;;;;;5136187;27;20051;-65
2024/01/19 11:28:36;;;;;;;18.30;12.32;;;;;;;;;;5129344;27;20054;-65
2024/01/19 11:31:10;;;;;;;20.88;13.20;;;;;;;;;;5110502;27;20054;-59
2024/01/19 11:33:37;;;;;;;20.25;13.20;;;;;;;;;;5115349;27;20051;-64
2024/01/19 11:36:04;;;;;;;17.77;12.50;;;;;;;;;;5118075;27;20062;-65
2024/01/19 11:38:44;;;;;;;18.67;12.40;;;;;;;;;;5114895;27;20047;-64
2024/01/19 11:41:11;;;;;;;17.73;11.57;;;;;;;;;;5108639;27;20055;-63
2024/01/19 11:43:42;;;;;;;20.75;12.77;;;;;;;;;;5109560;27;20039;-60
2024/01/19 11:46:10;;;;;;;18.98;13.95;;;;;;;;;;5108981;28;20051;-64
2024/01/19 11:48:42;;;;;;;18.48;12.57;;;;;;;;;;5114546;27;20055;-64
2024/01/19 11:51:09;;;;;;;18.42;12.65;;;;;;;;;;5110395;27;20375;-61
2024/01/19 11:53:54;;;;;;;18.05;13.00;;;;;;;;;;5111091;27;20416;-64
2024/01/19 11:56:22;;;;;;;17.45;12.88;;;;;;;;;;5111866;27;20051;-65
2024/01/19 11:58:48;;;;;;;19.35;12.07;;;;;;;;;;5111866;27;20055;-65
2024/01/19 12:01:17;;;;;;;17.50;12.55;;;;;;;;;;5118132;27;20056;-64
2024/01/19 12:03:44;;;;;;;18.38;12.48;;;;;;;;;;5122084;27;20047;-63
2024/01/19 12:06:11;;;;;;;21.20;13.88;;;;;;;;;;5114128;27;20079;-63
2024/01/19 12:08:39;;;;;;;19.17;14.05;;;;;;;;;;5118194;27;20055;-64
2024/01/19 12:11:07;;;;;;;19.80;14.38;;;;;;;;;;5122335;27;20048;-65
2024/01/19 12:13:35;;;;;;;17.73;12.55;;;;;;;;;;5115404;27;20052;-65
2024/01/19 12:16:02;;;;;;;18.40;13.15;;;;;;;;;;5120935;27;20047;-66
2024/01/19 12:18:31;;;;;;;19.52;13.18;;;;;;;;;;5125079;27;20055;-65
2024/01/19 12:20:58;;;;;;;16.50;11.75;;;;;;;;;;5099226;27;20114;-66
2024/01/19 14:22:39;;;;;;;17.77;12.30;;;;;;;;;;4539718;28;20066;-75
2024/01/19 14:25:06;;;;;;;18.50;12.60;;;;;;;;;;4976121;28;20066;-75
2024/01/19 14:27:33;;;;;;;20.02;13.23;;;;;;;;;;4977429;28;20062;-75
2024/01/19 14:30:00;;;;;;;17.85;13.60;;;;;;;;;;4977572;28;20051;-75
2024/01/19 14:32:27;;;;;;;21.20;13.93;;;;;;;;;;4977517;28;20062;-75
2024/01/19 14:34:55;;;;;;;19.67;13.27;;;;;;;;;;4978005;28;20061;-75
2024/01/19 14:37:22;;;;;;;18.60;12.80;;;;;;;;;;4973444;28;20058;-75
2024/01/19 14:39:51;;;;;;;18.15;12.65;;;;;;;;;;4977557;28;20059;-76
2024/01/19 14:42:18;;;;;;;22.80;12.80;;;;;;;;;;4977434;28;20053;-75
2024/01/19 14:44:45;;;;;;;21.30;13.40;;;;;;;;;;4977952;28;20062;-75
2024/01/19 14:47:12;;;;;;;22.23;13.52;;;;;;;;;;4977177;28;20479;-75
2024/01/19 14:49:40;;;;;;;22.17;13.60;;;;;;;;;;4975313;28;20055;-75
2024/01/19 14:52:07;;;;;;;23.27;13.43;;;;;;;;;;4975154;28;20054;-75
2024/01/19 14:54:34;;;;;;;21.27;13.43;;;;;;;;;;4975327;28;20081;-74
2024/01/19 14:57:02;;;;;;;20.13;13.18;;;;;;;;;;4976689;28;20051;-75
2024/01/19 14:59:29;;;;;;;21.52;13.38;;;;;;;;;;4976212;28;20062;-75
2024/01/19 15:01:55;;;;;;;23.83;13.73;;;;;;;;;;4975877;28;20066;-75
2024/01/19 15:04:22;;;;;;;23.00;14.02;;;;;;;;;;4963010;28;20415;-76
2024/01/19 15:06:50;;;;;;;24.65;14.25;;;;;;;;;;4968050;28;20487;-76
2024/01/19 15:09:16;;;;;;;22.27;13.88;;;;;;;;;;4976660;28;20058;-75
2024/01/19 15:11:43;;;;;;;22.27;13.32;;;;;;;;;;4976399;28;20059;-75
2024/01/19 15:14:11;;;;;;;22.58;13.40;;;;;;;;;;4977119;28;20479;-77
2024/01/19 15:16:38;;;;;;;24.10;13.38;;;;;;;;;;4969863;28;20492;-76
2024/01/19 15:19:05;;;;;;;27.02;14.48;;;;;;;;;;4969913;28;20046;-75
2024/01/19 15:21:32;;;;;;;21.58;12.63;;;;;;;;;;4974420;28;20061;-76
2024/01/19 15:23:59;;;;;;;23.08;13.02;;;;;;;;;;4975947;28;20058;-76
2024/01/19 15:26:26;;;;;;;20.80;13.65;;;;;;;;;;4974389;28;20072;-77
2024/01/19 15:28:52;;;;;;;23.60;13.85;;;;;;;;;;4965380;28;20051;-75
2024/01/19 15:31:21;;;;;;;23.10;14.73;;;;;;;;;;4974393;28;20058;-76
2024/01/19 15:33:48;;;;;;;25.02;13.88;;;;;;;;;;4970630;28;20046;-76
2024/01/19 15:36:15;;;;;;;22.98;14.15;;;;;;;;;;4972387;28;20054;-76
2024/01/19 15:38:41;;;;;;;20.63;13.35;;;;;;;;;;4966386;28;20059;-77
2024/01/19 15:41:08;;;;;;;21.75;12.60;;;;;;;;;;4974601;28;20051;-77
2024/01/19 15:43:36;;;;;;;22.00;13.90;;;;;;;;;;4975534;28;20076;-76
2024/01/19 15:46:03;;;;;;;25.23;15.02;;;;;;;;;;4993706;28;20059;-76
2024/01/19 15:48:31;;;;;;;24.33;15.13;;;;;;;;;;4993243;28;20487;-76
2024/01/19 15:50:58;;;;;;;26.85;14.80;;;;;;;;;;4973843;28;20047;-76
2024/01/19 15:53:24;;;;;;;23.77;14.27;;;;;;;;;;4975541;28;20062;-76
2024/01/19 15:55:51;;;;;;;21.90;13.63;;;;;;;;;;4976358;28;20050;-76
2024/01/19 15:58:18;;;;;;;24.55;15.43;;;;;;;;;;4976191;28;20061;-76
2024/01/19 16:00:45;;;;;;;27.67;15.40;;;;;;;;;;4956430;28;20080;-76
2024/01/19 16:03:12;;;;;;;27.80;15.98;;;;;;;;;;4956327;28;20055;-76
2024/01/19 16:05:41;;;;;;;28.38;15.75;;;;;;;;;;4959264;28;20055;-76
2024/01/19 16:08:08;;;;;;;27.40;15.88;;;;;;;;;;4975086;28;20059;-76
2024/01/19 16:10:35;;;;;;;27.02;15.85;;;;;;;;;;4975417;28;20051;-76
2024/01/19 16:13:02;;;;;;;28.40;16.00;;;;;;;;;;4962549;28;20416;-75
2024/01/19 16:15:29;;;;;;;28.88;15.90;;;;;;;;;;4966029;28;20058;-75
2024/01/19 16:17:55;;;;;;;29.27;17.00;;;;;;;;;;4974543;28;20055;-76